sensor_id;sensor_type;location;lat;lon;timestamp;temperature;humidity
41469;DHT22;27206;47.032;15.484;2023-04-10T00:02:05;5.10;1.00
41469;DHT22;27206;47.032;15.484;2023-04-10T00:04:31;5.20;1.00
41469;DHT22;27206;47.032;15.484;2023-04-10T00:06:57;5.10;1.00
41469;DHT22;27206;47.032;15.484;2023-04-10T00:09:24;5.10;1.00
41469;DHT22;27206;47.032;15.484;2023-04-10T00:11:50;5.20;1.00
41469;DHT22;27206;47.032;15.484;2023-04-10T00:14:16;5.20;1.00
41469;DHT22;27206;47.032;15.484;2023-04-10T00:16:48;5.20;1.00
41469;DHT22;27206;47.032;15.484;2023-04-10T00:19:13;5.30;1.00
41469;DHT22;27206;47.032;15.484;2023-04-10T00:21:39;5.20;1.00
41469;DHT22;27206;47.032;15.484;2023-04-10T00:24:05;5.20;1.00
41469;DHT22;27206;47.032;15.484;2023-04-10T00:26:31;5.10;1.00
41469;DHT22;27206;47.032;15.484;2023-04-10T00:28:56;5.10;1.00
41469;DHT22;27206;47.032;15.484;2023-04-10T00:31:22;5.10;1.00
41469;DHT22;27206;47.032;15.484;2023-04-10T00:33:48;5.00;1.00
41469;DHT22;27206;47.032;15.484;2023-04-10T00:36:13;5.00;1.00
41469;DHT22;27206;47.032;15.484;2023-04-10T00:38:39;5.00;1.00
41469;DHT22;27206;47.032;15.484;2023-04-10T00:41:05;5.00;1.00
41469;DHT22;27206;47.032;15.484;2023-04-10T00:43:31;4.90;1.00
41469;DHT22;27206;47.032;15.484;2023-04-10T00:45:56;4.90;1.00
41469;DHT22;27206;47.032;15.484;2023-04-10T00:48:22;5.00;1.00
41469;DHT22;27206;47.032;15.484;2023-04-10T00:50:48;5.00;1.00
41469;DHT22;27206;47.032;15.484;2023-04-10T00:53:14;4.90;1.00
41469;DHT22;27206;47.032;15.484;2023-04-10T00:55:40;5.00;1.00
41469;DHT22;27206;47.032;15.484;2023-04-10T00:58:06;5.10;1.00
41469;DHT22;27206;47.032;15.484;2023-04-10T01:00:31;5.00;1.00
41469;DHT22;27206;47.032;15.484;2023-04-10T01:02:57;5.00;1.00
41469;DHT22;27206;47.032;15.484;2023-04-10T01:05:28;4.90;1.00
41469;DHT22;27206;47.032;15.484;2023-04-10T01:11:05;5.00;1.00
41469;DHT22;27206;47.032;15.484;2023-04-10T01:13:49;5.10;1.00
41469;DHT22;27206;47.032;15.484;2023-04-10T01:16:25;5.00;1.00
41469;DHT22;27206;47.032;15.484;2023-04-10T01:19:04;4.90;1.00
41469;DHT22;27206;47.032;15.484;2023-04-10T01:21:34;4.90;1.00
41469;DHT22;27206;47.032;15.484;2023-04-10T01:24:13;4.90;1.00
41469;DHT22;27206;47.032;15.484;2023-04-10T01:29:13;4.90;1.00
41469;DHT22;27206;47.032;15.484;2023-04-10T01:31:51;5.00;1.00
41469;DHT22;27206;47.032;15.484;2023-04-10T01:34:24;5.00;1.00
41469;DHT22;27206;47.032;15.484;2023-04-10T01:36:54;4.90;1.00
41469;DHT22;27206;47.032;15.484;2023-04-10T01:39:21;4.90;1.00
41469;DHT22;27206;47.032;15.484;2023-04-10T01:41:51;4.90;1.00
41469;DHT22;27206;47.032;15.484;2023-04-10T01:44:26;4.80;1.00
41469;DHT22;27206;47.032;15.484;2023-04-10T01:46:54;4.70;1.00
41469;DHT22;27206;47.032;15.484;2023-04-10T01:49:25;4.70;1.00
41469;DHT22;27206;47.032;15.484;2023-04-10T01:51:51;4.60;1.00
41469;DHT22;27206;47.032;15.484;2023-04-10T01:54:24;4.50;1.00
41469;DHT22;27206;47.032;15.484;2023-04-10T01:56:50;4.50;1.00
41469;DHT22;27206;47.032;15.484;2023-04-10T01:59:16;4.40;1.00
41469;DHT22;27206;47.032;15.484;2023-04-10T02:01:42;4.40;1.00
41469;DHT22;27206;47.032;15.484;2023-04-10T02:04:07;4.40;1.00
41469;DHT22;27206;47.032;15.484;2023-04-10T02:06:44;4.30;1.00
41469;DHT22;27206;47.032;15.484;2023-04-10T02:12:15;4.10;1.00
41469;DHT22;27206;47.032;15.484;2023-04-10T02:14:45;4.00;1.00
41469;DHT22;27206;47.032;15.484;2023-04-10T02:17:15;3.90;1.00
41469;DHT22;27206;47.032;15.484;2023-04-10T02:19:42;4.00;1.00
41469;DHT22;27206;47.032;15.484;2023-04-10T02:22:10;3.80;1.00
41469;DHT22;27206;47.032;15.484;2023-04-10T02:24:36;3.80;1.00
41469;DHT22;27206;47.032;15.484;2023-04-10T02:27:02;3.70;1.00
41469;DHT22;27206;47.032;15.484;2023-04-10T02:29:27;3.60;1.00
41469;DHT22;27206;47.032;15.484;2023-04-10T02:31:53;3.60;1.00
41469;DHT22;27206;47.032;15.484;2023-04-10T02:34:19;3.60;1.00
41469;DHT22;27206;47.032;15.484;2023-04-10T02:36:44;3.50;1.00
41469;DHT22;27206;47.032;15.484;2023-04-10T02:39:10;3.50;1.00
41469;DHT22;27206;47.032;15.484;2023-04-10T02:41:35;3.40;1.00
41469;DHT22;27206;47.032;15.484;2023-04-10T02:44:01;3.30;1.00
41469;DHT22;27206;47.032;15.484;2023-04-10T02:46:27;3.30;1.00
41469;DHT22;27206;47.032;15.484;2023-04-10T02:48:52;3.20;1.00
41469;DHT22;27206;47.032;15.484;2023-04-10T02:51:18;3.20;1.00
41469;DHT22;27206;47.032;15.484;2023-04-10T02:53:44;3.10;1.00
41469;DHT22;27206;47.032;15.484;2023-04-10T02:56:09;3.10;1.00
41469;DHT22;27206;47.032;15.484;2023-04-10T02:58:37;3.00;1.00
41469;DHT22;27206;47.032;15.484;2023-04-10T03:01:05;3.00;1.00
41469;DHT22;27206;47.032;15.484;2023-04-10T03:03:33;3.00;1.00
41469;DHT22;27206;47.032;15.484;2023-04-10T03:05:59;3.00;1.00
41469;DHT22;27206;47.032;15.484;2023-04-10T03:08:25;2.90;1.00
41469;DHT22;27206;47.032;15.484;2023-04-10T03:10:50;2.70;1.00
41469;DHT22;27206;47.032;15.484;2023-04-10T03:13:16;2.70;1.00
41469;DHT22;27206;47.032;15.484;2023-04-10T03:15:42;2.70;1.00
41469;DHT22;27206;47.032;15.484;2023-04-10T03:18:08;2.70;1.00
41469;DHT22;27206;47.032;15.484;2023-04-10T03:20:37;2.70;1.00
41469;DHT22;27206;47.032;15.484;2023-04-10T03:23:04;2.60;1.00
41469;DHT22;27206;47.032;15.484;2023-04-10T03:25:30;2.60;1.00
41469;DHT22;27206;47.032;15.484;2023-04-10T03:27:56;2.50;1.00
41469;DHT22;27206;47.032;15.484;2023-04-10T03:30:22;2.50;1.00
41469;DHT22;27206;47.032;15.484;2023-04-10T03:32:47;2.50;1.00
41469;DHT22;27206;47.032;15.484;2023-04-10T03:35:13;2.40;1.00
41469;DHT22;27206;47.032;15.484;2023-04-10T03:37:39;2.40;1.00
41469;DHT22;27206;47.032;15.484;2023-04-10T03:40:07;2.30;1.00
41469;DHT22;27206;47.032;15.484;2023-04-10T03:42:34;2.30;1.00
41469;DHT22;27206;47.032;15.484;2023-04-10T03:44:59;2.30;1.00
41469;DHT22;27206;47.032;15.484;2023-04-10T03:47:32;2.20;1.00
41469;DHT22;27206;47.032;15.484;2023-04-10T03:49:58;2.20;1.00
41469;DHT22;27206;47.032;15.484;2023-04-10T03:52:25;2.10;1.00
41469;DHT22;27206;47.032;15.484;2023-04-10T03:54:55;2.10;1.00
41469;DHT22;27206;47.032;15.484;2023-04-10T03:57:20;2.20;1.00
41469;DHT22;27206;47.032;15.484;2023-04-10T03:59:46;2.10;1.00
41469;DHT22;27206;47.032;15.484;2023-04-10T04:02:12;2.10;1.00
41469;DHT22;27206;47.032;15.484;2023-04-10T04:04:38;2.00;1.00
41469;DHT22;27206;47.032;15.484;2023-04-10T04:07:04;2.00;1.00
41469;DHT22;27206;47.032;15.484;2023-04-10T04:09:30;2.00;1.00
41469;DHT22;27206;47.032;15.484;2023-04-10T04:11:56;2.00;1.00
41469;DHT22;27206;47.032;15.484;2023-04-10T04:14:22;1.90;1.00
41469;DHT22;27206;47.032;15.484;2023-04-10T04:16:48;1.80;1.00
41469;DHT22;27206;47.032;15.484;2023-04-10T04:19:14;1.90;1.00
41469;DHT22;27206;47.032;15.484;2023-04-10T04:21:40;1.80;1.00
41469;DHT22;27206;47.032;15.484;2023-04-10T04:24:06;1.80;1.00
41469;DHT22;27206;47.032;15.484;2023-04-10T04:26:32;1.70;1.00
41469;DHT22;27206;47.032;15.484;2023-04-10T04:28:57;1.70;1.00
41469;DHT22;27206;47.032;15.484;2023-04-10T04:31:23;1.60;1.00
41469;DHT22;27206;47.032;15.484;2023-04-10T04:33:49;1.60;1.00
41469;DHT22;27206;47.032;15.484;2023-04-10T04:36:15;1.60;1.00
41469;DHT22;27206;47.032;15.484;2023-04-10T04:38:41;1.60;1.00
41469;DHT22;27206;47.032;15.484;2023-04-10T04:41:07;1.60;1.00
41469;DHT22;27206;47.032;15.484;2023-04-10T04:43:32;1.60;1.00
41469;DHT22;27206;47.032;15.484;2023-04-10T04:45:58;1.60;1.00
41469;DHT22;27206;47.032;15.484;2023-04-10T04:48:24;1.70;1.00
41469;DHT22;27206;47.032;15.484;2023-04-10T04:50:49;1.60;1.00
41469;DHT22;27206;47.032;15.484;2023-04-10T04:53:15;1.60;1.00
41469;DHT22;27206;47.032;15.484;2023-04-10T04:55:41;1.70;1.00
41469;DHT22;27206;47.032;15.484;2023-04-10T04:58:06;1.70;1.00
41469;DHT22;27206;47.032;15.484;2023-04-10T05:00:32;1.70;1.00
41469;DHT22;27206;47.032;15.484;2023-04-10T05:02:57;1.60;1.00
41469;DHT22;27206;47.032;15.484;2023-04-10T05:05:23;1.60;1.00
41469;DHT22;27206;47.032;15.484;2023-04-10T05:07:49;1.70;1.00
41469;DHT22;27206;47.032;15.484;2023-04-10T05:10:15;1.70;1.00
41469;DHT22;27206;47.032;15.484;2023-04-10T05:12:40;1.80;1.00
41469;DHT22;27206;47.032;15.484;2023-04-10T05:15:07;1.90;1.00
41469;DHT22;27206;47.032;15.484;2023-04-10T05:17:33;2.00;1.00
41469;DHT22;27206;47.032;15.484;2023-04-10T05:19:59;2.00;1.00
41469;DHT22;27206;47.032;15.484;2023-04-10T05:22:25;2.00;1.00
41469;DHT22;27206;47.032;15.484;2023-04-10T05:24:52;2.00;1.00
41469;DHT22;27206;47.032;15.484;2023-04-10T05:27:20;2.00;1.00
41469;DHT22;27206;47.032;15.484;2023-04-10T05:29:45;2.10;1.00
41469;DHT22;27206;47.032;15.484;2023-04-10T05:32:12;2.20;1.00
41469;DHT22;27206;47.032;15.484;2023-04-10T05:34:38;2.20;1.00
41469;DHT22;27206;47.032;15.484;2023-04-10T05:37:03;2.30;1.00
41469;DHT22;27206;47.032;15.484;2023-04-10T05:39:29;2.30;1.00
41469;DHT22;27206;47.032;15.484;2023-04-10T05:41:55;2.40;1.00
41469;DHT22;27206;47.032;15.484;2023-04-10T05:44:21;2.40;1.00
41469;DHT22;27206;47.032;15.484;2023-04-10T05:46:46;2.50;1.00
41469;DHT22;27206;47.032;15.484;2023-04-10T05:49:12;2.50;1.00
41469;DHT22;27206;47.032;15.484;2023-04-10T05:51:37;2.70;1.00
41469;DHT22;27206;47.032;15.484;2023-04-10T05:54:03;2.80;1.00
41469;DHT22;27206;47.032;15.484;2023-04-10T05:56:29;2.80;1.00
41469;DHT22;27206;47.032;15.484;2023-04-10T05:58:54;3.00;1.00
41469;DHT22;27206;47.032;15.484;2023-04-10T06:01:20;3.00;1.00
41469;DHT22;27206;47.032;15.484;2023-04-10T06:03:46;3.10;1.00
41469;DHT22;27206;47.032;15.484;2023-04-10T06:06:12;3.20;1.00
41469;DHT22;27206;47.032;15.484;2023-04-10T06:08:37;3.20;1.00
41469;DHT22;27206;47.032;15.484;2023-04-10T06:11:03;3.30;1.00
41469;DHT22;27206;47.032;15.484;2023-04-10T06:13:29;3.40;1.00
41469;DHT22;27206;47.032;15.484;2023-04-10T06:15:54;3.50;1.00
41469;DHT22;27206;47.032;15.484;2023-04-10T06:18:20;3.80;1.00
41469;DHT22;27206;47.032;15.484;2023-04-10T06:20:46;4.10;1.00
41469;DHT22;27206;47.032;15.484;2023-04-10T06:23:12;4.10;1.00
41469;DHT22;27206;47.032;15.484;2023-04-10T06:25:38;4.20;1.00
41469;DHT22;27206;47.032;15.484;2023-04-10T06:28:04;4.20;1.00
41469;DHT22;27206;47.032;15.484;2023-04-10T06:30:30;4.30;1.00
41469;DHT22;27206;47.032;15.484;2023-04-10T06:32:58;4.40;1.00
41469;DHT22;27206;47.032;15.484;2023-04-10T06:35:23;4.30;1.00
41469;DHT22;27206;47.032;15.484;2023-04-10T06:37:49;4.40;1.00
41469;DHT22;27206;47.032;15.484;2023-04-10T06:40:15;4.40;1.00
41469;DHT22;27206;47.032;15.484;2023-04-10T06:42:40;4.50;1.00
41469;DHT22;27206;47.032;15.484;2023-04-10T06:45:06;4.60;1.00
41469;DHT22;27206;47.032;15.484;2023-04-10T06:47:33;4.70;1.00
41469;DHT22;27206;47.032;15.484;2023-04-10T06:49:58;4.70;1.00
41469;DHT22;27206;47.032;15.484;2023-04-10T06:52:24;4.80;1.00
41469;DHT22;27206;47.032;15.484;2023-04-10T06:54:50;4.90;1.00
41469;DHT22;27206;47.032;15.484;2023-04-10T06:57:15;5.00;1.00
41469;DHT22;27206;47.032;15.484;2023-04-10T06:59:41;5.00;1.00
41469;DHT22;27206;47.032;15.484;2023-04-10T07:02:07;5.10;1.00
41469;DHT22;27206;47.032;15.484;2023-04-10T07:04:33;5.20;1.00
41469;DHT22;27206;47.032;15.484;2023-04-10T07:06:58;5.30;1.00
41469;DHT22;27206;47.032;15.484;2023-04-10T07:09:25;5.40;1.00
41469;DHT22;27206;47.032;15.484;2023-04-10T07:11:51;5.60;1.00
41469;DHT22;27206;47.032;15.484;2023-04-10T07:14:17;5.60;1.00
41469;DHT22;27206;47.032;15.484;2023-04-10T07:16:43;5.70;1.00
41469;DHT22;27206;47.032;15.484;2023-04-10T07:19:08;5.90;99.90
41469;DHT22;27206;47.032;15.484;2023-04-10T07:21:35;6.00;99.90
41469;DHT22;27206;47.032;15.484;2023-04-10T07:24:01;6.10;99.90
41469;DHT22;27206;47.032;15.484;2023-04-10T07:26:27;6.30;99.90
41469;DHT22;27206;47.032;15.484;2023-04-10T07:28:52;6.40;99.90
41469;DHT22;27206;47.032;15.484;2023-04-10T07:31:18;6.50;99.90
41469;DHT22;27206;47.032;15.484;2023-04-10T07:33:44;6.60;99.90
41469;DHT22;27206;47.032;15.484;2023-04-10T07:36:11;6.90;99.90
41469;DHT22;27206;47.032;15.484;2023-04-10T07:38:37;7.00;99.90
41469;DHT22;27206;47.032;15.484;2023-04-10T07:41:03;7.10;99.90
41469;DHT22;27206;47.032;15.484;2023-04-10T07:43:29;7.20;99.90
41469;DHT22;27206;47.032;15.484;2023-04-10T07:45:55;7.30;99.90
41469;DHT22;27206;47.032;15.484;2023-04-10T07:48:21;7.50;99.90
41469;DHT22;27206;47.032;15.484;2023-04-10T07:50:47;7.60;99.90
41469;DHT22;27206;47.032;15.484;2023-04-10T07:53:13;7.70;99.90
41469;DHT22;27206;47.032;15.484;2023-04-10T07:55:43;7.90;99.90
41469;DHT22;27206;47.032;15.484;2023-04-10T07:58:10;8.10;99.90
41469;DHT22;27206;47.032;15.484;2023-04-10T08:00:35;8.10;99.90
41469;DHT22;27206;47.032;15.484;2023-04-10T08:03:02;8.30;99.90
41469;DHT22;27206;47.032;15.484;2023-04-10T08:05:28;8.30;99.90
41469;DHT22;27206;47.032;15.484;2023-04-10T08:07:53;8.50;99.90
41469;DHT22;27206;47.032;15.484;2023-04-10T08:10:19;8.60;99.90
41469;DHT22;27206;47.032;15.484;2023-04-10T08:12:45;8.80;99.90
41469;DHT22;27206;47.032;15.484;2023-04-10T08:15:10;8.90;99.90
41469;DHT22;27206;47.032;15.484;2023-04-10T08:17:36;8.90;99.90
41469;DHT22;27206;47.032;15.484;2023-04-10T08:20:02;9.10;99.90
41469;DHT22;27206;47.032;15.484;2023-04-10T08:22:29;9.20;99.90
41469;DHT22;27206;47.032;15.484;2023-04-10T08:24:55;9.30;99.90
41469;DHT22;27206;47.032;15.484;2023-04-10T08:27:20;9.50;99.90
41469;DHT22;27206;47.032;15.484;2023-04-10T08:29:46;9.50;99.90
41469;DHT22;27206;47.032;15.484;2023-04-10T08:32:11;9.50;99.90
41469;DHT22;27206;47.032;15.484;2023-04-10T08:34:37;9.90;99.90
41469;DHT22;27206;47.032;15.484;2023-04-10T08:37:07;9.90;99.90
41469;DHT22;27206;47.032;15.484;2023-04-10T08:39:37;10.10;99.90
41469;DHT22;27206;47.032;15.484;2023-04-10T08:42:05;10.30;99.90
41469;DHT22;27206;47.032;15.484;2023-04-10T08:44:30;10.40;99.90
41469;DHT22;27206;47.032;15.484;2023-04-10T08:46:59;10.40;99.90
41469;DHT22;27206;47.032;15.484;2023-04-10T08:49:34;10.70;99.90
41469;DHT22;27206;47.032;15.484;2023-04-10T08:52:10;10.90;99.90
41469;DHT22;27206;47.032;15.484;2023-04-10T08:54:37;11.10;99.90
41469;DHT22;27206;47.032;15.484;2023-04-10T08:57:06;11.40;99.90
41469;DHT22;27206;47.032;15.484;2023-04-10T08:59:32;11.20;99.90
41469;DHT22;27206;47.032;15.484;2023-04-10T09:01:58;11.30;99.90
41469;DHT22;27206;47.032;15.484;2023-04-10T09:04:24;11.50;99.90
41469;DHT22;27206;47.032;15.484;2023-04-10T09:06:53;11.60;99.90
41469;DHT22;27206;47.032;15.484;2023-04-10T09:09:19;11.70;99.90
41469;DHT22;27206;47.032;15.484;2023-04-10T09:14:24;11.70;99.90
41469;DHT22;27206;47.032;15.484;2023-04-10T09:16:51;11.90;99.90
41469;DHT22;27206;47.032;15.484;2023-04-10T09:19:31;12.00;99.90
41469;DHT22;27206;47.032;15.484;2023-04-10T09:21:56;11.90;99.90
41469;DHT22;27206;47.032;15.484;2023-04-10T09:24:23;12.00;99.90
41469;DHT22;27206;47.032;15.484;2023-04-10T09:26:49;11.90;99.90
41469;DHT22;27206;47.032;15.484;2023-04-10T09:29:15;11.60;99.90
41469;DHT22;27206;47.032;15.484;2023-04-10T09:31:43;11.80;99.90
41469;DHT22;27206;47.032;15.484;2023-04-10T09:34:13;11.50;99.90
41469;DHT22;27206;47.032;15.484;2023-04-10T09:36:43;11.80;99.90
41469;DHT22;27206;47.032;15.484;2023-04-10T09:39:10;11.80;99.90
41469;DHT22;27206;47.032;15.484;2023-04-10T09:41:53;11.80;99.90
41469;DHT22;27206;47.032;15.484;2023-04-10T09:46:58;12.10;99.90
41469;DHT22;27206;47.032;15.484;2023-04-10T09:49:46;12.20;99.90
41469;DHT22;27206;47.032;15.484;2023-04-10T09:52:23;12.10;99.90
41469;DHT22;27206;47.032;15.484;2023-04-10T09:55:02;12.40;99.90
41469;DHT22;27206;47.032;15.484;2023-04-10T09:57:33;13.20;99.90
41469;DHT22;27206;47.032;15.484;2023-04-10T10:00:01;13.70;99.90
41469;DHT22;27206;47.032;15.484;2023-04-10T10:02:29;13.60;99.90
41469;DHT22;27206;47.032;15.484;2023-04-10T10:04:57;13.70;99.90
41469;DHT22;27206;47.032;15.484;2023-04-10T10:07:25;14.10;99.90
41469;DHT22;27206;47.032;15.484;2023-04-10T10:09:51;14.60;99.90
41469;DHT22;27206;47.032;15.484;2023-04-10T10:17:23;15.50;99.90
41469;DHT22;27206;47.032;15.484;2023-04-10T10:20:04;15.80;99.90
41469;DHT22;27206;47.032;15.484;2023-04-10T10:22:32;15.50;99.90
41469;DHT22;27206;47.032;15.484;2023-04-10T10:25:00;15.50;99.90
41469;DHT22;27206;47.032;15.484;2023-04-10T10:27:27;16.10;99.90
41469;DHT22;27206;47.032;15.484;2023-04-10T10:29:55;16.00;99.90
41469;DHT22;27206;47.032;15.484;2023-04-10T10:32:24;15.80;99.90
41469;DHT22;27206;47.032;15.484;2023-04-10T10:34:51;15.80;99.90
41469;DHT22;27206;47.032;15.484;2023-04-10T10:37:18;15.20;99.90
41469;DHT22;27206;47.032;15.484;2023-04-10T10:43:04;14.30;99.90
41469;DHT22;27206;47.032;15.484;2023-04-10T10:45:33;14.20;99.90
41469;DHT22;27206;47.032;15.484;2023-04-10T10:48:01;15.10;99.90
41469;DHT22;27206;47.032;15.484;2023-04-10T10:50:53;15.00;99.90
41469;DHT22;27206;47.032;15.484;2023-04-10T10:53:34;14.80;99.90
41469;DHT22;27206;47.032;15.484;2023-04-10T10:58:56;14.60;99.90
41469;DHT22;27206;47.032;15.484;2023-04-10T11:01:23;14.20;99.90
41469;DHT22;27206;47.032;15.484;2023-04-10T11:03:49;14.00;99.90
41469;DHT22;27206;47.032;15.484;2023-04-10T11:06:19;14.10;99.90
41469;DHT22;27206;47.032;15.484;2023-04-10T11:08:46;14.00;99.90
41469;DHT22;27206;47.032;15.484;2023-04-10T11:13:42;16.20;99.90
41469;DHT22;27206;47.032;15.484;2023-04-10T11:19:03;15.90;99.90
41469;DHT22;27206;47.032;15.484;2023-04-10T11:21:29;16.00;99.90
41469;DHT22;27206;47.032;15.484;2023-04-10T11:31:53;15.40;99.90
41469;DHT22;27206;47.032;15.484;2023-04-10T11:34:20;14.80;99.90
41469;DHT22;27206;47.032;15.484;2023-04-10T11:36:46;14.50;99.90
41469;DHT22;27206;47.032;15.484;2023-04-10T11:39:15;14.20;99.90
41469;DHT22;27206;47.032;15.484;2023-04-10T11:41:43;14.30;99.90
41469;DHT22;27206;47.032;15.484;2023-04-10T11:44:12;14.20;99.90
41469;DHT22;27206;47.032;15.484;2023-04-10T11:46:40;13.80;99.90
41469;DHT22;27206;47.032;15.484;2023-04-10T11:49:07;14.00;99.90
41469;DHT22;27206;47.032;15.484;2023-04-10T11:51:34;14.20;99.90
41469;DHT22;27206;47.032;15.484;2023-04-10T11:54:20;14.10;99.90
41469;DHT22;27206;47.032;15.484;2023-04-10T11:59:26;14.30;99.90
41469;DHT22;27206;47.032;15.484;2023-04-10T12:01:53;14.50;99.90
41469;DHT22;27206;47.032;15.484;2023-04-10T12:04:27;15.70;99.90
41469;DHT22;27206;47.032;15.484;2023-04-10T12:06:55;15.80;99.90
41469;DHT22;27206;47.032;15.484;2023-04-10T12:09:22;15.50;99.90
41469;DHT22;27206;47.032;15.484;2023-04-10T12:14:19;15.20;99.90
41469;DHT22;27206;47.032;15.484;2023-04-10T12:16:46;14.70;99.90
41469;DHT22;27206;47.032;15.484;2023-04-10T12:19:13;14.50;99.90
41469;DHT22;27206;47.032;15.484;2023-04-10T12:21:40;14.10;99.90
41469;DHT22;27206;47.032;15.484;2023-04-10T12:24:07;14.30;99.90
41469;DHT22;27206;47.032;15.484;2023-04-10T12:26:33;14.80;99.90
41469;DHT22;27206;47.032;15.484;2023-04-10T12:28:58;14.80;99.90
41469;DHT22;27206;47.032;15.484;2023-04-10T12:31:28;14.90;99.90
41469;DHT22;27206;47.032;15.484;2023-04-10T12:33:55;15.00;99.90
41469;DHT22;27206;47.032;15.484;2023-04-10T12:36:25;15.00;99.90
41469;DHT22;27206;47.032;15.484;2023-04-10T12:38:53;14.80;99.90
41469;DHT22;27206;47.032;15.484;2023-04-10T12:41:28;16.70;99.90
41469;DHT22;27206;47.032;15.484;2023-04-10T12:44:06;18.00;99.90
41469;DHT22;27206;47.032;15.484;2023-04-10T12:46:32;17.60;99.90
41469;DHT22;27206;47.032;15.484;2023-04-10T12:49:14;17.90;99.90
41469;DHT22;27206;47.032;15.484;2023-04-10T12:51:49;18.50;99.90
41469;DHT22;27206;47.032;15.484;2023-04-10T12:54:28;19.10;99.90
41469;DHT22;27206;47.032;15.484;2023-04-10T12:56:54;18.50;99.90
41469;DHT22;27206;47.032;15.484;2023-04-10T12:59:20;18.40;99.90
41469;DHT22;27206;47.032;15.484;2023-04-10T13:01:46;19.60;99.90
41469;DHT22;27206;47.032;15.484;2023-04-10T13:04:11;19.70;99.90
41469;DHT22;27206;47.032;15.484;2023-04-10T13:06:45;18.70;99.90
41469;DHT22;27206;47.032;15.484;2023-04-10T13:09:12;18.30;99.90
41469;DHT22;27206;47.032;15.484;2023-04-10T13:11:38;18.30;99.90
41469;DHT22;27206;47.032;15.484;2023-04-10T13:14:03;18.20;99.90
41469;DHT22;27206;47.032;15.484;2023-04-10T13:16:29;18.00;99.90
41469;DHT22;27206;47.032;15.484;2023-04-10T13:18:55;18.30;99.90
41469;DHT22;27206;47.032;15.484;2023-04-10T13:21:21;18.60;99.90
41469;DHT22;27206;47.032;15.484;2023-04-10T13:23:56;17.90;99.90
41469;DHT22;27206;47.032;15.484;2023-04-10T13:26:23;17.50;99.90
41469;DHT22;27206;47.032;15.484;2023-04-10T13:28:49;17.10;99.90
41469;DHT22;27206;47.032;15.484;2023-04-10T13:31:14;17.10;99.90
41469;DHT22;27206;47.032;15.484;2023-04-10T13:33:43;17.10;99.90
41469;DHT22;27206;47.032;15.484;2023-04-10T13:36:11;18.00;99.90
41469;DHT22;27206;47.032;15.484;2023-04-10T13:38:36;18.70;99.90
41469;DHT22;27206;47.032;15.484;2023-04-10T13:41:02;18.20;99.90
41469;DHT22;27206;47.032;15.484;2023-04-10T13:43:28;19.20;99.90
41469;DHT22;27206;47.032;15.484;2023-04-10T13:45:54;19.80;99.90
41469;DHT22;27206;47.032;15.484;2023-04-10T13:48:19;20.00;99.90
41469;DHT22;27206;47.032;15.484;2023-04-10T13:50:45;20.40;99.90
41469;DHT22;27206;47.032;15.484;2023-04-10T13:53:11;19.00;99.90
41469;DHT22;27206;47.032;15.484;2023-04-10T13:55:37;18.30;99.90
41469;DHT22;27206;47.032;15.484;2023-04-10T13:58:04;19.30;99.90
41469;DHT22;27206;47.032;15.484;2023-04-10T14:00:31;19.80;99.90
41469;DHT22;27206;47.032;15.484;2023-04-10T14:02:56;20.10;99.90
41469;DHT22;27206;47.032;15.484;2023-04-10T14:05:22;19.80;99.90
41469;DHT22;27206;47.032;15.484;2023-04-10T14:07:48;20.10;99.90
41469;DHT22;27206;47.032;15.484;2023-04-10T14:10:16;18.50;99.90
41469;DHT22;27206;47.032;15.484;2023-04-10T14:12:41;19.60;99.90
41469;DHT22;27206;47.032;15.484;2023-04-10T14:15:07;20.20;99.90
41469;DHT22;27206;47.032;15.484;2023-04-10T14:17:33;20.60;99.90
41469;DHT22;27206;47.032;15.484;2023-04-10T14:19:59;19.90;99.90
41469;DHT22;27206;47.032;15.484;2023-04-10T14:22:24;20.50;99.90
41469;DHT22;27206;47.032;15.484;2023-04-10T14:24:50;20.40;99.90
41469;DHT22;27206;47.032;15.484;2023-04-10T14:27:15;19.80;99.90
41469;DHT22;27206;47.032;15.484;2023-04-10T14:29:41;20.70;99.90
41469;DHT22;27206;47.032;15.484;2023-04-10T14:32:07;20.60;99.90
41469;DHT22;27206;47.032;15.484;2023-04-10T14:34:32;20.80;99.90
41469;DHT22;27206;47.032;15.484;2023-04-10T14:36:58;20.70;99.90
41469;DHT22;27206;47.032;15.484;2023-04-10T14:39:24;21.20;99.90
41469;DHT22;27206;47.032;15.484;2023-04-10T14:41:50;20.50;99.90
41469;DHT22;27206;47.032;15.484;2023-04-10T14:44:16;20.40;99.90
41469;DHT22;27206;47.032;15.484;2023-04-10T14:46:43;19.80;99.90
41469;DHT22;27206;47.032;15.484;2023-04-10T14:49:08;19.50;99.90
41469;DHT22;27206;47.032;15.484;2023-04-10T14:51:35;20.60;99.90
41469;DHT22;27206;47.032;15.484;2023-04-10T14:54:01;20.20;99.90
41469;DHT22;27206;47.032;15.484;2023-04-10T14:56:28;19.80;99.90
41469;DHT22;27206;47.032;15.484;2023-04-10T14:58:54;20.60;99.90
41469;DHT22;27206;47.032;15.484;2023-04-10T15:01:20;20.40;99.90
41469;DHT22;27206;47.032;15.484;2023-04-10T15:03:46;19.30;99.90
41469;DHT22;27206;47.032;15.484;2023-04-10T15:06:12;20.00;99.90
41469;DHT22;27206;47.032;15.484;2023-04-10T15:08:38;20.50;99.90
41469;DHT22;27206;47.032;15.484;2023-04-10T15:11:04;20.50;99.90
41469;DHT22;27206;47.032;15.484;2023-04-10T15:13:29;19.30;99.90
41469;DHT22;27206;47.032;15.484;2023-04-10T15:15:55;20.00;99.90
41469;DHT22;27206;47.032;15.484;2023-04-10T15:18:21;20.00;99.90
41469;DHT22;27206;47.032;15.484;2023-04-10T15:20:47;20.00;99.90
41469;DHT22;27206;47.032;15.484;2023-04-10T15:23:13;19.90;99.90
41469;DHT22;27206;47.032;15.484;2023-04-10T15:25:38;19.50;99.90
41469;DHT22;27206;47.032;15.484;2023-04-10T15:28:04;18.80;99.90
41469;DHT22;27206;47.032;15.484;2023-04-10T15:30:32;18.70;99.90
41469;DHT22;27206;47.032;15.484;2023-04-10T15:32:58;19.20;99.90
41469;DHT22;27206;47.032;15.484;2023-04-10T15:35:23;20.20;99.90
41469;DHT22;27206;47.032;15.484;2023-04-10T15:37:51;20.20;99.90
41469;DHT22;27206;47.032;15.484;2023-04-10T15:40:17;20.10;99.90
41469;DHT22;27206;47.032;15.484;2023-04-10T15:42:42;20.00;99.90
41469;DHT22;27206;47.032;15.484;2023-04-10T15:45:08;20.20;99.90
41469;DHT22;27206;47.032;15.484;2023-04-10T15:47:34;19.90;99.90
41469;DHT22;27206;47.032;15.484;2023-04-10T15:50:00;19.80;99.90
41469;DHT22;27206;47.032;15.484;2023-04-10T15:52:25;19.60;99.90
41469;DHT22;27206;47.032;15.484;2023-04-10T15:54:53;19.50;99.90
41469;DHT22;27206;47.032;15.484;2023-04-10T15:57:19;19.50;99.90
41469;DHT22;27206;47.032;15.484;2023-04-10T15:59:45;19.80;99.90
41469;DHT22;27206;47.032;15.484;2023-04-10T16:02:10;19.60;99.90
41469;DHT22;27206;47.032;15.484;2023-04-10T16:04:36;19.40;99.90
41469;DHT22;27206;47.032;15.484;2023-04-10T16:07:01;19.30;99.90
41469;DHT22;27206;47.032;15.484;2023-04-10T16:09:27;19.00;99.90
41469;DHT22;27206;47.032;15.484;2023-04-10T16:11:53;19.10;99.90
41469;DHT22;27206;47.032;15.484;2023-04-10T16:14:19;19.50;99.90